Productos aeronáuticos

  • SIGMET
  • METAR / SPECI
  • TAF
  • AIREP
  • Aviso de aeródromo
  • Pronárea
  • Carta superficie
Fecha : 27/05/2017
FTUY 04 SUMU 27 17 30
SUMU TAF 271730Z 2718/2818 15013KT 9999 BKN030 BKN200 TX16/2818Z TN11/2810Z BECMG 2723/2801 08008KT 9999 SCT026 BKN080 PROB40 TEMPO 2807/2712 8000 -RA BKN023 BKN070=
SULS TAF 271730Z 2718/2818 15013KT 9999 BKN030 BKN200 TX16/2818Z TN11/2810Z BECMG 2723/2801 08008KT 9999 SCT026 BKN080 PROB40 TEMPO 2807/2712 8000 -RA BKN023 BKN070=
SUAA TAF 271730Z 2718/2818 15015KT 9999 BKN016 BKN200 TX16/2818Z TN11/2810Z BECMG 2723/2801 08008KT 9999 SCT026 BKN080=
SUCA TAF 271730Z 2718/2818 15015KT 9999 BKN016 BKN200 TX16/2818Z TN11/2810Z BECMG 2723/2801 08008KT 9999 SCT026 BKN080=
SUDU TAF 271730Z 2718/2818 14010KT 9999 BKN013 BKN080 TX17/2818Z TN09/2810Z PROB40 TEMPO 2806/2812 12005KT 3000 BR OVC010=
SUSO TAF 271730Z 2718/2818 16012KT 9999 BKN013 BKN080 TX17/2818Z TN11/2810Z PROB40 TEMPO 2806/2812 14005KT 3000 BR OVC010=
SURV TAF 271730Z 2718/2818 13010G20KT 9999 BKN015 TX16/2818Z TN12/2810Z PROB30 TEMPO 2723/2806 6000 RADZ BKN012 OVC060 PROB40 TEMPO 2807/2812 3000 BR OVC010=

Predictor :


Mensajes TAF vigentes - Internacionales


Argentina
TAF SAAR 271700Z 2718/2818 11010KT 9999 SCT020 BKN060 TX17/2818Z TN06/2809Z BECMG 2802/2804 9999 BKN012 BKN030 PROB30 2809/2812 11005KT 8000 SCT008 OVC020 BECMG 2813/2814 9999 SCT020 SCT030
TAF SAME 271700Z 2718/2818 16005KT 9999 SCT040 SCT080 TX15/2720Z TN04/2810Z
TAF SABE 271700Z 2718/2818 14010KT 9999 SCT020 BKN100 TX15/2818Z TN11/2810Z BECMG 2722/2800 09015KT BKN008 BKN020 PROB30 2808/2812 8000 -RA OVC007 BECMG 2814/2816 9999 BKN015
TAF SAEZ 271700Z 2718/2818 12010G20KT 9999 SCT030 FEW050TCU TX17/2818Z TN07/2809Z BECMG 2800/2803 11007KT PROB30 2807/2811 2000 BR BECMG 2515/2518 07008KT 9999 SCT030
TAF SACO 271700Z 2718/2818 18005KT 9999 SCT030 TX16/2818Z TN03/2810Z BECMG 2806/2809 VRB03KT 3000 BR BKN010 BECMG 2813/2816 07010KT 9999 SCT030
Bolivia
TAF SLLP 271645Z 2718/2818 11008KT 9999 SCT015 SCT070 TX15/2720Z TN01/2810Z TEMPO 2719/2721 8000 VCSH SCT017 FEW020CB SCT070 BECMG 2801/2803 4000E VCFG FEW002 SCT015 BKN070 PROB40 TEMPO 2807/2810 0800 FG BECMG 2812/2814 9999 NSW SCT015 SCT070
Brasil
TAF SBSP 271620Z 2718/2818 19010KT 9999 BKN025 TN15/2809Z TX25/2817Z BECMG 2720/2722 16007KT BKN008 PROB30 2808/2811 3000 BR OVC005 BECMG 2811/2813 09005KT BKN015 BECMG 2815/2817 SCT020 RMK PGG
TAF SBGR 271620Z 2718/2824 18007KT 9999 BKN025 TN15/2809Z TX25/2818Z BECMG 2721/2723 15007KT 8000 BKN010 BECMG 2806/2808 07005KT PROB30 2808/2811 3000 BR BKN005 BECMG 2811/2813 9999 BKN015 BECMG 2815/2817 SCT025 BECMG 2820/2822 16007KT BKN010 RMK PGG
TAF SBBR 271600Z 2718/2818 15008KT 8000 NSC TX28/2719Z TN18/2807Z FM2 72100 11003KT CAVOK FM281400 13008KT 8000 NSC RMK PDA
TAF SBFI 271530Z 2718/2818 02006KT 9999 SCT025 TX24/2718Z TN19/2809Z PROB40 TEMPO 2718/2721 8000 VCSH BKN020 FEW035TCU BECMG 2721/2723 22005KT B KN020 BECMG 2802/2804 BKN010 PROB40 TEMPO 2807/2811 2000 RADZ BR BKN004 BK N008 BECMG 2811/2813 25004KT BKN015 BECMG 2813/2815 BKN020 RMK PER
TAF SBFL 271530Z 2718/2818 18008KT 9999 SCT012 SCT025 TX22/2718Z TN18 /2809Z TEMPO 2718/2800 4000 TSRA BR BKN010 FEW035CB BECMG 2800/2802 SCT010 BKN020 PROB30 TEMPO 2807/2810 6000 RA BKN010 BKN018 BECMG 2812/2814 24007KT SCT012 BKN025 RMK PER
TAF SBPA 271530Z 2718/2818 11009KT 9000 BKN010 BKN025 TX17/2718Z TN14 /2802Z TEMPO 2718/2724 4000 TSRA BR BKN007 BKN010 FEW030CB PROB30 280 0/2802 5000 RA BR BKN008 BKN012 PROB40 2807/2811 3000 BR BKN005 BKN008 PROB 40 TEMPO 2814/2818 6000 RA BKN008 BKN020 RMK PER
TAF SBRJ 271400Z 2718/2806 17005KT CAVOK TX26/2719Z TN24/2806Z BECMG 2721/2723 21010KT CAVOK BECMG 2800/2802 34010KT RMK PGY
Colombia
TAF SKBO 271700Z 2718/2818 14012KT 9999 FEW020 SCT200 BECMG 2718/2719 SCT023TCU TEMPO 2718/2720 8000 VCSH SCT018TCU PROB40 2723/2801 27006KT TEMPO 2808/2812 05005KT 8000 MIFG SCT013 TX21/2718Z TN08/2811Z
Chile
TAF SCCI 271627Z 2718/2818 27020KT 9999 SCT035 TN04/2810Z TX09/2718Z TEMPO 2718/2802 9000 -SHRA BECMG 2722/2800 25015G25KT BECMG 2805/2807 FEW035 BECMG 2812/2814 SCT040
TAF SCEL 271615Z 2718/2818 21008KT CAVOK TX19/2719Z TN03/2811Z BECMG 2804/2806 16004KT 8000 NSC TEMPO 2808/2814 4000 BR BECMG 2816/2818 21004KT
Ecuador
SEQM 271600Z 2718/2818 36010KT 9999 BKN036 SCT100 FM280000 VRB03KT 9999 FEW005 BKN023 FM280600 00000KT 9999 FEW005 SCT020 BKN090 FM281200 VRB03KT 9999 SCT023 SCT100 TX20/2719Z TN10/2811Z
EEUU
KJFK 271737Z 2718/2824 21011KT P6SM BKN050 FM271900 17009KT P6SM BKN050 FM280000 14005KT P6SM BKN040 FM280900 13005KT P6SM BKN020 FM281400 14008KT P6SM SCT025 BKN035 FM281800 14013KT P6SM SCT035 SCT250
KLGA 271737Z 2718/2818 30005KT P6SM BKN050 FM272100 16008KT P6SM BKN050 FM280100 13004KT P6SM BKN040 FM280900 10005KT P6SM BKN020 FM281400 12008KT P6SM SCT025 BKN035
KMIA 271736Z 2718/2818 13009KT P6SM VCSH SCT025 SCT250 FM280000 VRB03KT P6SM SKC FM281500 24007KT P6SM FEW250
KDCA 271730Z 2718/2818 08006KT P6SM -SHRA BKN060 FM272000 05005KT 4SM -SHRA OVC060 FM280000 07005KT P6SM BKN045 FM280900 03004KT P6SM BKN030 FM281200 06004KT P6SM BKN015 FM281700 12006KT P6SM BKN040
KIAD 271730Z 2718/2824 06005KT P6SM VCSH OVC060 FM280800 VRB03KT P6SM BKN025 FM281000 VRB03KT 3SM BR BKN010 FM281100 VRB03KT 3SM BR BKN003 FM281300 07004KT P6SM BKN008 FM281400 10004KT P6SM BKN010 FM282100 14008KT P6SM OVC050
España
TAF LEMD 271700Z 2718/2824 16012KT CAVOK TX32/2718Z TN17/2805Z PROB30 TEMPO 2718/2721 16015G25KT BECMG 2800/2802 VRB05KT BECMG 2808/2810 18010KT PROB40 TEMPO 2814/2818 18015G25KT TEMPO 2814/2824 FEW040TCU BECMG 2817/2819 VRB05KT PROB30 TEMPO 2820/2824 SHRA SCT040TCU
TAF LEBL 271700Z 2718/2818 06008KT 9999 FEW010 TX26/2812Z TN18/2806Z TEMPO 2718/2719 09010KT BECMG 2721/2723 VRB03KT BECMG 2807/2809 09008KT PROB30 TEMPO 2807/2812 BKN010
Francia
TAF LFPO 271700Z 2718/2824 VRB03KT CAVOK PROB30 TEMPO 2718/2721 -SHRA BKN060TCU
Inglaterra
TAF EGLL 271654Z 2718/2824 21012KT 9999 FEW030 BECMG 2800/2803 VRB04KT PROB30 TEMPO 2802/2806 7000 BKN006 PROB30 TEMPO 2814/2820 6000 SHRA RA BECMG 2818/2821 10010KT TEMPO 2820/2824 6000 SHRA RA PROB30 TEMPO 2820/2824 3500 TSRA +SHRA
Panamá
TAF MPTO 271600Z 2718/2900 18006KT 9999 SCT018 BKN100 PROB30 TEMPO 2720/2722 8000 TSRA FEW013CB BECMG 2723/2803 00000KT 9999 NSW SCT016
Paraguay
TAF SGAS 271600Z 2718/2818 23007KT 6000 DZ BKN008 OVC015 TX21/2718Z TN16/2810Z TEMPO 2719/2720 2500 TSRA FEW040CB OVC015 BECMG 2721/2723 18007KT 3000 RA BR OVC008 BECMG 2801/2804 6000 DZ BR OVC006 BECMG 2807/2810 00000KT 0500 FG NSC
Venezuela
TAF SVMI 271600Z 2718/2818 29004KT 9999 SCT016 TX34/18Z TN25/08Z BECMG 2718/2722 07006KT SCT070

* Datos extraidos del Text DataServer de la NOAA (NOAA TEXT DATA SERVER)

Instituto Uruguayo de Meteorología

Dr. Javier Barrios Amorín 1488 - CP 11200
Mesa Central (598) 1895

Montevideo - Uruguay